Time;durP1;ratioP1;P1;durP2;ratioP2;P2;SDS_P1;SDS_P2;PMS_P1;PMS_P2;Temp;Humidity;BMP_temperature;BMP_pressure;BME280_temperature;BME280_humidity;BME280_pressure;Samples;Min_cycle;Max_cycle;Signal;HPM_P1;HPM_P2
2022/08/18 03:01:15;;;;;;;;;;;18.20;99.90;;;;;;5534959;23;20135;-82
2022/08/18 03:03:40;;;;;;;49.53;21.80;;;18.30;99.90;;;;;;4903129;29;19966;-83
2022/08/18 03:06:06;;;;;;;51.03;22.77;;;18.20;99.90;;;;;;4934440;29;20044;-83
2022/08/18 03:08:32;;;;;;;47.50;23.30;;;18.20;99.90;;;;;;4938234;29;20075;-83
2022/08/18 03:10:58;;;;;;;33.30;19.60;;;18.20;99.90;;;;;;4938866;29;20167;-82
2022/08/18 03:13:24;;;;;;;46.20;21.38;;;18.20;99.90;;;;;;4920917;29;20107;-85
2022/08/18 03:15:50;;;;;;;41.50;21.90;;;18.20;99.90;;;;;;4921440;29;20487;-84
2022/08/18 03:18:15;;;;;;;48.58;22.10;;;18.20;99.90;;;;;;4938341;29;20055;-83
2022/08/18 03:20:44;;;;;;;46.97;22.83;;;18.20;99.90;;;;;;4905030;29;20047;-84
2022/08/18 03:23:10;;;;;;;34.33;19.48;;;18.20;99.90;;;;;;4906029;29;20094;-82
2022/08/18 03:25:43;;;;;;;38.15;19.90;;;18.30;99.90;;;;;;4921163;29;20061;-83
2022/08/18 03:28:09;;;;;;;39.08;21.75;;;18.30;99.90;;;;;;4937979;29;20044;-84
2022/08/18 03:30:35;;;;;;;48.33;19.65;;;18.30;99.90;;;;;;4921376;29;20377;-85
2022/08/18 03:33:00;;;;;;;34.85;20.08;;;18.20;99.90;;;;;;4938168;29;20061;-83
2022/08/18 03:35:26;;;;;;;34.67;19.50;;;18.20;99.90;;;;;;4937810;29;20103;-82
2022/08/18 03:37:54;;;;;;;39.47;20.70;;;18.30;99.90;;;;;;4937568;29;20399;-84
2022/08/18 03:40:20;;;;;;;48.88;23.95;;;18.20;99.90;;;;;;4920323;29;20059;-83
2022/08/18 03:42:45;;;;;;;40.95;20.02;;;18.20;99.90;;;;;;4938398;29;20035;-83
2022/08/18 03:45:11;;;;;;;44.50;21.38;;;18.20;99.90;;;;;;4920392;29;20051;-84
2022/08/18 03:47:37;;;;;;;37.72;20.88;;;18.20;99.90;;;;;;4937097;29;20036;-82
2022/08/18 03:50:03;;;;;;;35.10;18.83;;;18.20;99.90;;;;;;4938183;29;20036;-82
2022/08/18 03:52:29;;;;;;;39.45;21.02;;;18.20;99.90;;;;;;4936729;29;20046;-83
2022/08/18 03:54:55;;;;;;;34.58;19.25;;;18.20;99.90;;;;;;4920695;29;20514;-83
2022/08/18 03:57:21;;;;;;;42.63;20.17;;;18.20;99.90;;;;;;4938101;29;20047;-85
2022/08/18 03:59:46;;;;;;;39.58;20.27;;;18.20;99.90;;;;;;4937334;29;20051;-83
2022/08/18 04:02:12;;;;;;;38.17;20.45;;;18.20;99.90;;;;;;4919788;29;20451;-84
2022/08/18 04:04:40;;;;;;;41.17;23.67;;;18.10;99.90;;;;;;4937453;29;20043;-84
2022/08/18 04:07:09;;;;;;;46.67;21.85;;;18.20;99.90;;;;;;4937055;29;20044;-83
2022/08/18 04:09:37;;;;;;;36.60;22.25;;;18.20;99.90;;;;;;4937036;29;20099;-83
2022/08/18 04:12:11;;;;;;;47.70;22.80;;;18.20;99.90;;;;;;4937781;29;20043;-82
2022/08/18 04:14:38;;;;;;;42.58;23.85;;;18.20;99.90;;;;;;4919745;29;20055;-84
2022/08/18 04:17:05;;;;;;;46.35;25.08;;;18.20;99.90;;;;;;4938812;29;20039;-83
2022/08/18 04:19:33;;;;;;;43.70;23.17;;;18.10;99.90;;;;;;4937077;29;20046;-84
2022/08/18 04:22:00;;;;;;;48.35;24.67;;;18.10;99.90;;;;;;4920651;29;20043;-82
2022/08/18 04:24:27;;;;;;;34.13;20.88;;;18.10;99.90;;;;;;4937563;29;20399;-83
2022/08/18 04:26:55;;;;;;;44.83;24.48;;;18.20;99.90;;;;;;4919505;29;20048;-83
2022/08/18 04:29:20;;;;;;;44.72;24.70;;;18.20;99.90;;;;;;4936856;29;20050;-84
2022/08/18 04:31:48;;;;;;;41.97;22.73;;;18.10;99.90;;;;;;4920860;29;20039;-83
2022/08/18 04:34:14;;;;;;;38.58;22.40;;;18.20;99.90;;;;;;4919716;29;20404;-85
2022/08/18 04:36:41;;;;;;;41.20;24.23;;;18.20;99.90;;;;;;4936838;29;20044;-84
2022/08/18 04:39:09;;;;;;;42.85;22.67;;;18.20;99.90;;;;;;4937431;29;20127;-83
2022/08/18 04:41:37;;;;;;;48.55;24.83;;;18.20;99.90;;;;;;4919201;29;20047;-85
2022/08/18 04:44:07;;;;;;;44.28;24.63;;;18.20;99.90;;;;;;4920245;29;20041;-83
2022/08/18 04:46:52;;;;;;;50.08;25.83;;;18.20;99.90;;;;;;4936634;29;20031;-83
2022/08/18 04:49:21;;;;;;;41.63;24.38;;;18.20;99.90;;;;;;4936678;29;20437;-83
2022/08/18 04:53:43;;;;;;;39.42;23.08;;;18.20;99.90;;;;;;4920242;29;20051;-82
2022/08/18 04:54:37;;;;;;;50.75;26.23;;;18.20;99.90;;;;;;4919210;29;20052;-83
2022/08/18 04:57:18;;;;;;;35.60;23.10;;;18.20;99.90;;;;;;4935982;29;20395;-83
2022/08/18 04:59:46;;;;;;;37.88;23.33;;;18.20;99.90;;;;;;4918935;29;20036;-83
2022/08/18 05:02:13;;;;;;;39.03;23.58;;;18.30;99.90;;;;;;4935895;29;20036;-83
2022/08/18 05:04:40;;;;;;;35.83;23.25;;;18.20;99.90;;;;;;4918330;29;20040;-83
2022/08/18 05:07:11;;;;;;;41.47;24.30;;;18.20;99.90;;;;;;4935931;29;20040;-82
2022/08/18 05:09:40;;;;;;;46.92;25.67;;;18.30;99.90;;;;;;4935981;29;20527;-84
2022/08/18 05:12:06;;;;;;;56.55;28.70;;;18.30;99.90;;;;;;4903373;29;20102;-83
2022/08/18 05:14:32;;;;;;;40.63;22.77;;;18.30;99.90;;;;;;4918681;29;20412;-84
2022/08/18 05:16:59;;;;;;;47.63;24.98;;;18.30;99.90;;;;;;4919316;29;20039;-83
2022/08/18 05:19:26;;;;;;;39.80;23.48;;;18.30;99.90;;;;;;4919136;29;20083;-83
2022/08/18 05:21:54;;;;;;;40.03;23.52;;;18.30;99.90;;;;;;4936057;29;20036;-85
2022/08/18 05:24:20;;;;;;;37.53;23.00;;;18.30;99.90;;;;;;4903119;29;20074;-83
2022/08/18 05:26:50;;;;;;;35.05;21.80;;;18.30;99.90;;;;;;4935706;29;20051;-85
2022/08/18 05:29:16;;;;;;;37.15;22.10;;;18.30;99.90;;;;;;4935658;29;20043;-82
2022/08/18 05:31:41;;;;;;;37.63;21.88;;;18.30;99.90;;;;;;4936037;29;20046;-83
2022/08/18 05:34:07;;;;;;;34.85;21.48;;;18.30;99.90;;;;;;4907887;29;20051;-84
2022/08/18 05:36:49;;;;;;;37.20;21.33;;;18.40;99.90;;;;;;4899027;29;20073;-83
2022/08/18 05:39:20;;;;;;;42.45;23.50;;;18.40;99.90;;;;;;4896800;29;20053;-86
2022/08/18 05:42:24;;;;;;;37.95;22.52;;;18.40;99.90;;;;;;4881225;29;20048;-83
2022/08/18 05:44:52;;;;;;;31.30;21.95;;;18.30;99.90;;;;;;4882278;29;20052;-84
2022/08/18 05:47:28;;;;;;;42.53;26.13;;;18.30;99.90;;;;;;4881946;29;20469;-82
2022/08/18 05:49:56;;;;;;;50.42;27.20;;;18.40;99.90;;;;;;4898214;29;20041;-80
2022/08/18 05:52:37;;;;;;;45.47;24.65;;;18.40;99.90;;;;;;4897638;29;20609;-85
2022/08/18 05:58:04;;;;;;;34.65;23.63;;;18.40;99.90;;;;;;4896642;29;20060;-84
2022/08/18 06:00:31;;;;;;;46.75;25.63;;;18.40;99.90;;;;;;4880899;29;20127;-84
2022/08/18 06:03:30;;;;;;;47.10;26.08;;;18.40;99.90;;;;;;4881318;29;20052;-86
2022/08/18 06:09:50;;;;;;;39.58;25.13;;;18.40;99.90;;;;;;4897691;29;20083;-86
2022/08/18 06:12:23;;;;;;;39.63;23.42;;;18.40;99.90;;;;;;4898028;29;20049;-85
2022/08/18 06:14:49;;;;;;;40.70;24.05;;;18.40;99.90;;;;;;4896967;29;20092;-85
2022/08/18 06:17:55;;;;;;;39.50;23.90;;;18.50;99.90;;;;;;4899716;29;20128;-84
2022/08/18 06:20:35;;;;;;;40.15;22.33;;;18.50;99.90;;;;;;4899705;29;20056;-78
2022/08/18 06:23:35;;;;;;;34.58;22.92;;;18.50;99.90;;;;;;4899686;29;20048;-85
2022/08/18 06:26:31;;;;;;;32.85;20.75;;;18.50;99.90;;;;;;4901791;29;20044;-85
2022/08/18 06:29:03;;;;;;;32.35;20.10;;;18.50;99.90;;;;;;4883763;29;20123;-84
2022/08/18 06:32:01;;;;;;;31.83;20.58;;;18.50;99.90;;;;;;4884125;29;20090;-82
2022/08/18 06:35:07;;;;;;;32.08;20.48;;;18.50;99.90;;;;;;4884154;29;20040;-81
2022/08/18 06:40:31;;;;;;;31.15;19.75;;;18.50;99.90;;;;;;4899569;29;20104;-84
2022/08/18 06:42:59;;;;;;;28.85;20.13;;;18.60;99.90;;;;;;4899277;29;20401;-85
2022/08/18 06:45:34;;;;;;;26.45;20.02;;;18.60;99.90;;;;;;4899409;29;20048;-82
2022/08/18 06:48:27;;;;;;;32.22;21.30;;;18.70;99.90;;;;;;4883632;29;20057;-83
2022/08/18 06:50:58;;;;;;;30.15;18.30;;;18.70;99.90;;;;;;4900284;29;20040;-83
2022/08/18 06:54:00;;;;;;;24.67;17.08;;;18.80;99.90;;;;;;4899694;29;20362;-81
2022/08/18 06:56:48;;;;;;;24.13;16.77;;;18.80;99.90;;;;;;4898987;29;20044;-82
2022/08/18 06:59:14;;;;;;;23.95;15.55;;;18.90;99.90;;;;;;4883570;29;20048;-83
2022/08/18 07:01:39;;;;;;;24.40;15.63;;;18.90;99.90;;;;;;4898948;29;20572;-82
2022/08/18 07:04:05;;;;;;;27.75;16.27;;;18.90;99.90;;;;;;4899429;29;20052;-84
2022/08/18 07:06:31;;;;;;;29.00;16.23;;;19.00;99.90;;;;;;4883633;29;20075;-83
2022/08/18 07:09:21;;;;;;;25.88;13.75;;;19.00;99.90;;;;;;4900205;29;20119;-82
2022/08/18 07:12:08;;;;;;;24.92;13.40;;;19.00;99.90;;;;;;4900290;29;20456;-83
2022/08/18 07:14:46;;;;;;;27.55;14.02;;;19.10;99.90;;;;;;4899340;29;20128;-84
2022/08/18 07:17:23;;;;;;;20.02;12.35;;;19.10;99.90;;;;;;4899613;29;20078;-82
2022/08/18 07:19:58;;;;;;;18.58;10.80;;;19.10;99.90;;;;;;4898748;29;20048;-83
2022/08/18 07:22:24;;;;;;;21.73;10.95;;;19.20;99.90;;;;;;4898543;29;20540;-84
2022/08/18 07:24:57;;;;;;;23.98;11.63;;;19.20;99.90;;;;;;4883165;29;20418;-84
2022/08/18 07:27:42;;;;;;;22.73;12.10;;;19.20;99.90;;;;;;4897946;29;20162;-84
2022/08/18 07:30:10;;;;;;;18.75;11.10;;;19.20;99.90;;;;;;4883474;29;20080;-82
2022/08/18 07:32:44;;;;;;;23.83;10.95;;;19.20;99.90;;;;;;4899735;29;20476;-83
2022/08/18 07:35:16;;;;;;;16.02;9.95;;;19.20;99.90;;;;;;4899832;29;20076;-83
2022/08/18 07:37:52;;;;;;;17.83;9.65;;;19.20;99.90;;;;;;4882708;29;20492;-83
2022/08/18 07:40:59;;;;;;;18.13;9.70;;;19.30;99.90;;;;;;4898350;29;20546;-84
2022/08/18 07:43:56;;;;;;;16.50;7.47;;;19.30;99.90;;;;;;4833380;29;20494;-85
2022/08/18 07:46:45;;;;;;;15.05;7.32;;;19.40;99.90;;;;;;4899766;29;20059;-82
2022/08/18 07:49:18;;;;;;;23.83;8.15;;;19.50;99.90;;;;;;4899103;29;20117;-84
2022/08/18 07:51:48;;;;;;;16.10;8.18;;;19.50;99.90;;;;;;4899321;29;20045;-85
2022/08/18 07:54:34;;;;;;;13.40;8.00;;;19.60;99.90;;;;;;4898742;29;20078;-83
2022/08/18 07:57:07;;;;;;;16.35;7.55;;;19.50;99.90;;;;;;4898051;29;20119;-84
2022/08/18 07:59:53;;;;;;;17.40;8.18;;;19.50;99.90;;;;;;4898368;29;20048;-84
2022/08/18 08:02:37;;;;;;;14.80;7.95;;;19.50;99.90;;;;;;4882592;29;20131;-83
2022/08/18 08:05:08;;;;;;;14.05;7.35;;;19.50;99.90;;;;;;4898261;29;20045;-82
2022/08/18 08:07:45;;;;;;;12.98;6.80;;;19.40;99.90;;;;;;4899491;29;20104;-86
2022/08/18 08:10:13;;;;;;;12.45;6.65;;;19.40;99.90;;;;;;4899314;29;20044;-85
2022/08/18 08:13:03;;;;;;;19.88;7.03;;;19.40;99.90;;;;;;4882408;29;20485;-85
2022/08/18 08:15:44;;;;;;;9.85;6.57;;;19.40;99.90;;;;;;4899207;29;20127;-84
2022/08/18 08:18:32;;;;;;;11.65;6.55;;;19.40;99.90;;;;;;4882377;29;20073;-82
2022/08/18 08:21:28;;;;;;;12.45;5.63;;;19.50;99.90;;;;;;4898634;29;20055;-85
2022/08/18 08:24:04;;;;;;;9.23;5.50;;;19.50;99.90;;;;;;4870740;29;20076;-81
2022/08/18 08:26:41;;;;;;;10.55;5.78;;;19.50;99.90;;;;;;4899098;29;20041;-83
2022/08/18 08:29:18;;;;;;;9.18;5.45;;;19.50;99.90;;;;;;4882291;29;20059;-83
2022/08/18 08:32:00;;;;;;;11.93;5.30;;;19.60;99.90;;;;;;4899451;29;20512;-83
2022/08/18 08:34:30;;;;;;;13.38;5.13;;;19.60;99.90;;;;;;4903883;29;20041;-84
2022/08/18 08:37:19;;;;;;;9.82;5.53;;;19.50;99.90;;;;;;4906130;29;20522;-82
2022/08/18 08:39:59;;;;;;;9.25;5.32;;;19.50;99.90;;;;;;4905752;29;20048;-83
2022/08/18 08:42:40;;;;;;;11.27;6.07;;;19.40;99.90;;;;;;4906956;29;20079;-79
2022/08/18 08:45:29;;;;;;;11.77;5.38;;;19.40;99.90;;;;;;4896768;29;20101;-82
2022/08/18 08:48:08;;;;;;;8.77;5.15;;;19.40;99.90;;;;;;4902838;29;20037;-83
2022/08/18 08:50:56;;;;;;;9.90;5.60;;;19.50;99.90;;;;;;4884417;29;20048;-85
2022/08/18 08:53:25;;;;;;;11.27;5.50;;;19.50;99.90;;;;;;4901141;29;20048;-87
2022/08/18 08:55:56;;;;;;;8.98;4.97;;;19.50;99.90;;;;;;4899947;29;20044;-87
2022/08/18 08:58:48;;;;;;;8.95;5.10;;;19.60;99.90;;;;;;4898930;29;20051;-87
2022/08/18 09:01:58;;;;;;;7.28;4.43;;;19.80;99.90;;;;;;4900165;29;20141;-86
2022/08/18 09:04:26;;;;;;;9.45;4.53;;;19.80;99.90;;;;;;4898722;29;20108;-87
2022/08/18 09:07:07;;;;;;;6.28;3.58;;;19.90;99.90;;;;;;4897399;29;20040;-87
2022/08/18 09:09:44;;;;;;;6.55;3.55;;;19.90;99.90;;;;;;4897858;29;20041;-86
2022/08/18 09:12:43;;;;;;;6.93;3.35;;;20.00;99.90;;;;;;4898540;29;20045;-85
2022/08/18 09:15:28;;;;;;;8.95;4.30;;;20.00;99.90;;;;;;4897054;29;20041;-85
2022/08/18 09:18:28;;;;;;;10.80;4.20;;;20.10;99.90;;;;;;4881563;29;20045;-85
2022/08/18 09:21:34;;;;;;;7.45;2.50;;;20.10;99.90;;;;;;4882424;29;20048;-86
2022/08/18 09:24:16;;;;;;;4.50;2.13;;;20.20;99.90;;;;;;4889425;29;20056;-85
2022/08/18 09:27:12;;;;;;;3.13;2.10;;;20.30;99.90;;;;;;4898713;29;20036;-86
2022/08/18 09:29:38;;;;;;;4.72;1.83;;;20.40;99.90;;;;;;4898583;29;20078;-86
2022/08/18 09:32:19;;;;;;;7.60;2.38;;;20.40;99.90;;;;;;4881699;29;20389;-87
2022/08/18 09:34:55;;;;;;;5.18;1.80;;;20.40;99.90;;;;;;4882740;29;20397;-89
2022/08/18 09:37:26;;;;;;;3.85;2.10;;;20.50;99.90;;;;;;4881651;29;20048;-85
2022/08/18 09:43:11;;;;;;;4.22;1.77;;;20.90;99.90;;;;;;4897403;29;20489;-88
2022/08/18 09:45:54;;;;;;;2.78;1.92;;;21.00;99.90;;;;;;4898482;29;20088;-85
2022/08/18 09:48:38;;;;;;;3.42;1.70;;;21.20;99.90;;;;;;4896738;29;20041;-85
2022/08/18 09:51:17;;;;;;;4.63;1.70;;;21.20;99.90;;;;;;4899804;29;20079;-86
2022/08/18 09:53:46;;;;;;;3.75;1.88;;;21.20;99.90;;;;;;4901316;29;20418;-86
2022/08/18 09:56:14;;;;;;;3.92;1.42;;;21.30;99.90;;;;;;4884887;29;20465;-87
2022/08/18 09:59:16;;;;;;;;;;;;;;;;;;;;;
2022/08/18 10:01:42;;;;;;;6.85;1.90;;;21.10;99.90;;;;;;4899993;29;20108;-85
2022/08/18 10:04:13;;;;;;;4.88;1.80;;;20.90;99.90;;;;;;4906469;29;20048;-85
2022/08/18 10:06:40;;;;;;;5.38;2.25;;;20.90;99.90;;;;;;4920370;29;20079;-85
2022/08/18 10:09:22;;;;;;;5.53;2.35;;;20.90;99.90;;;;;;4903413;29;20523;-88
2022/08/18 10:12:03;;;;;;;3.25;1.60;;;20.90;99.90;;;;;;4887561;29;20043;-88
2022/08/18 10:15:07;;;;;;;4.07;1.60;;;20.90;99.90;;;;;;4903201;29;20062;-85
2022/08/18 10:17:57;;;;;;;5.30;1.80;;;20.90;99.90;;;;;;4887525;29;20055;-86
2022/08/18 10:20:46;;;;;;;4.80;1.80;;;20.90;99.90;;;;;;4903341;29;20390;-85
2022/08/18 10:23:40;;;;;;;5.47;1.90;;;21.00;99.90;;;;;;4893396;29;20052;-85
2022/08/18 10:26:28;;;;;;;6.85;1.73;;;21.10;99.90;;;;;;4919915;29;20052;-86
2022/08/18 10:29:02;;;;;;;3.95;1.58;;;21.20;99.90;;;;;;4903294;29;20567;-87
2022/08/18 10:31:30;;;;;;;3.88;1.80;;;21.40;99.90;;;;;;4920307;29;20559;-84
2022/08/18 10:33:59;;;;;;;6.47;2.47;;;21.40;99.90;;;;;;4903190;29;20625;-87
2022/08/18 10:36:43;;;;;;;6.10;2.42;;;21.40;99.90;;;;;;4902685;29;20480;-88
2022/08/18 10:39:38;;;;;;;3.22;1.73;;;21.20;99.90;;;;;;4903141;29;20044;-86
2022/08/18 10:42:21;;;;;;;3.93;1.80;;;21.10;99.90;;;;;;4890757;29;20052;-86
2022/08/18 10:44:49;;;;;;;4.63;1.58;;;21.10;99.90;;;;;;4887258;29;20498;-86
2022/08/18 10:47:32;;;;;;;5.00;1.90;;;21.00;99.90;;;;;;4886840;29;20158;-86
2022/08/18 10:50:04;;;;;;;4.80;2.03;;;21.00;99.90;;;;;;4902618;29;20108;-88
2022/08/18 10:52:49;;;;;;;3.25;1.58;;;20.90;99.90;;;;;;4903098;29;20036;-86
2022/08/18 10:55:47;;;;;;;5.28;2.10;;;20.90;99.90;;;;;;4886213;29;20056;-87
2022/08/18 10:58:44;;;;;;;2.85;1.60;;;20.80;99.90;;;;;;4854072;29;20421;-87
2022/08/18 11:01:27;;;;;;;5.15;1.70;;;20.80;99.90;;;;;;4919540;29;20075;-87
2022/08/18 11:04:03;;;;;;;4.05;1.70;;;20.90;99.90;;;;;;4919037;29;20484;-86
2022/08/18 11:06:40;;;;;;;3.50;1.70;;;20.90;99.90;;;;;;4919198;29;20044;-86
2022/08/18 11:09:06;;;;;;;3.97;1.70;;;21.00;99.90;;;;;;4902016;29;20048;-85
2022/08/18 11:11:36;;;;;;;6.10;1.92;;;21.00;99.90;;;;;;4918821;29;20044;-86
2022/08/18 11:14:22;;;;;;;4.30;1.60;;;21.10;99.90;;;;;;4902047;29;20087;-87
2022/08/18 11:17:12;;;;;;;5.15;1.90;;;21.20;99.90;;;;;;4886361;29;20126;-86
2022/08/18 11:19:41;;;;;;;2.55;1.50;;;21.40;99.90;;;;;;4900787;29;20040;-83
2022/08/18 11:22:23;;;;;;;4.00;1.40;;;21.70;99.90;;;;;;4900499;29;20051;-84
2022/08/18 11:24:51;;;;;;;4.43;1.45;;;22.00;99.90;;;;;;4919570;29;20055;-84
2022/08/18 11:27:23;;;;;;;3.35;1.38;;;22.20;99.90;;;;;;4900762;29;20123;-86
2022/08/18 11:29:50;;;;;;;4.25;1.60;;;22.40;99.90;;;;;;4900947;29;20054;-83
2022/08/18 11:32:27;;;;;;;2.80;1.40;;;22.50;99.90;;;;;;4917949;29;20040;-86
2022/08/18 11:34:58;;;;;;;4.63;1.58;;;22.50;99.90;;;;;;4920448;29;20061;-84
2022/08/18 11:37:30;;;;;;;2.50;1.48;;;22.50;99.90;;;;;;4904527;29;20044;-86
2022/08/18 11:39:58;;;;;;;2.25;1.38;;;22.50;99.90;;;;;;4905086;29;20051;-86
2022/08/18 11:42:32;;;;;;;3.97;1.40;;;22.50;99.90;;;;;;4921248;29;20059;-86
2022/08/18 11:45:24;;;;;;;5.20;2.00;;;22.60;99.90;;;;;;4920881;29;20127;-85
2022/08/18 11:47:58;;;;;;;3.13;1.50;;;22.60;99.90;;;;;;4936947;29;20088;-84
2022/08/18 11:50:31;;;;;;;4.22;1.60;;;22.70;99.90;;;;;;4921361;29;20131;-87
2022/08/18 11:53:31;;;;;;;3.15;1.70;;;22.80;99.90;;;;;;4920472;29;20502;-86
2022/08/18 11:56:20;;;;;;;3.17;1.50;;;22.80;99.90;;;;;;4910225;29;20048;-83
2022/08/18 11:58:56;;;;;;;1.90;1.40;;;22.80;99.90;;;;;;4920142;29;20063;-85
2022/08/18 12:01:53;;;;;;;2.05;1.33;;;23.00;99.90;;;;;;4937169;29;20047;-85
2022/08/18 12:04:19;;;;;;;2.65;1.45;;;23.20;99.90;;;;;;4936778;29;20187;-86
2022/08/18 12:06:50;;;;;;;3.40;1.55;;;23.50;99.90;;;;;;4920257;29;20043;-84
2022/08/18 12:09:16;;;;;;;4.45;1.50;;;23.70;99.90;;;;;;4920030;29;20091;-86
2022/08/18 12:11:56;;;;;;;3.03;1.63;;;23.70;99.90;;;;;;4920187;29;20079;-86
2022/08/18 12:14:30;;;;;;;3.85;1.70;;;23.50;99.90;;;;;;4936778;29;20452;-85
2022/08/18 12:16:56;;;;;;;2.50;1.40;;;23.50;99.90;;;;;;4920235;29;20095;-85
2022/08/18 12:19:23;;;;;;;2.65;1.50;;;23.70;99.90;;;;;;4904570;29;20090;-84
2022/08/18 12:21:55;;;;;;;3.92;1.40;;;23.90;99.90;;;;;;4919989;29;20079;-84
2022/08/18 12:24:25;;;;;;;2.78;1.50;;;24.20;99.90;;;;;;4937172;29;20055;-85
2022/08/18 12:26:52;;;;;;;2.50;1.40;;;24.20;99.90;;;;;;4920009;29;20086;-86
2022/08/18 12:29:18;;;;;;;3.42;1.50;;;24.10;99.90;;;;;;4919841;29;20044;-88
2022/08/18 12:31:45;;;;;;;3.90;1.83;;;23.90;99.90;;;;;;4937640;29;20046;-86
2022/08/18 12:34:11;;;;;;;3.00;1.60;;;23.70;99.90;;;;;;4937007;29;20567;-85
2022/08/18 12:36:37;;;;;;;2.38;1.25;;;23.50;99.90;;;;;;4920858;29;20071;-85
2022/08/18 12:39:04;;;;;;;1.85;1.30;;;23.40;99.90;;;;;;4904779;29;20113;-87
2022/08/18 12:41:29;;;;;;;3.05;1.70;;;23.40;99.90;;;;;;4920025;29;20067;-88
2022/08/18 12:43:55;;;;;;;5.88;1.50;;;23.30;99.90;;;;;;4919910;29;20499;-84
2022/08/18 12:46:21;;;;;;;4.18;1.48;;;23.30;99.90;;;;;;4904418;29;20043;-87
2022/08/18 12:48:47;;;;;;;3.17;1.55;;;23.30;99.90;;;;;;4920147;29;20051;-86
2022/08/18 12:51:13;;;;;;;1.98;1.23;;;23.30;99.90;;;;;;4919618;29;20036;-85
2022/08/18 12:53:39;;;;;;;2.50;1.30;;;23.30;99.90;;;;;;4920193;29;20119;-90
2022/08/18 12:56:16;;;;;;;3.05;1.60;;;23.30;99.90;;;;;;4904255;29;20099;-86
2022/08/18 12:58:42;;;;;;;2.25;1.30;;;23.40;99.90;;;;;;4920114;29;20083;-87
2022/08/18 13:01:07;;;;;;;5.55;1.63;;;23.50;99.90;;;;;;4919720;29;20032;-83
2022/08/18 13:03:33;;;;;;;2.20;1.27;;;23.60;99.90;;;;;;4936370;29;20155;-85
2022/08/18 13:05:59;;;;;;;2.50;1.48;;;23.60;99.90;;;;;;4936376;29;20078;-85
2022/08/18 13:08:25;;;;;;;2.60;1.70;;;23.60;99.90;;;;;;4903402;29;20047;-84
2022/08/18 13:10:50;;;;;;;3.00;1.50;;;23.70;99.90;;;;;;4919051;29;20056;-84
2022/08/18 13:13:18;;;;;;;4.55;1.50;;;23.70;99.90;;;;;;4919963;29;20044;-84
2022/08/18 13:15:45;;;;;;;3.30;1.40;;;23.90;99.90;;;;;;4918934;29;20059;-88
2022/08/18 13:18:12;;;;;;;2.78;1.50;;;24.20;99.90;;;;;;4919049;29;20058;-87
2022/08/18 13:20:38;;;;;;;5.10;1.98;;;24.50;99.90;;;;;;4936474;29;20123;-88
2022/08/18 13:23:04;;;;;;;4.55;1.75;;;24.70;99.90;;;;;;4936729;29;20075;-88
2022/08/18 13:25:29;;;;;;;3.47;1.65;;;24.90;99.90;;;;;;4937299;29;20425;-85
2022/08/18 13:27:56;;;;;;;3.58;1.50;;;25.10;99.90;;;;;;4923610;29;20102;-85
2022/08/18 13:30:23;;;;;;;2.92;1.42;;;25.20;99.90;;;;;;4940689;29;20043;-85
2022/08/18 13:32:49;;;;;;;2.38;1.40;;;25.20;99.90;;;;;;4923874;29;20043;-84
2022/08/18 13:35:14;;;;;;;4.30;1.50;;;25.10;99.90;;;;;;4940900;29;20075;-87
2022/08/18 13:37:40;;;;;;;2.95;1.30;;;25.10;99.90;;;;;;4907563;29;20049;-85
2022/08/18 13:40:08;;;;;;;2.50;1.40;;;25.20;99.90;;;;;;4940663;29;20106;-83
2022/08/18 13:42:46;;;;;;;2.75;1.40;;;25.30;99.90;;;;;;4923084;29;20052;-86
2022/08/18 13:45:12;;;;;;;2.20;1.30;;;25.50;99.90;;;;;;4939903;29;20052;-87
2022/08/18 13:47:38;;;;;;;3.05;1.50;;;25.70;99.90;;;;;;4940561;29;20459;-89
2022/08/18 13:50:04;;;;;;;3.42;1.45;;;25.70;99.90;;;;;;4924213;29;20122;-88
2022/08/18 13:53:04;;;;;;;3.97;1.67;;;25.80;99.90;;;;;;4923959;29;20040;-89
2022/08/18 13:55:33;;;;;;;2.90;1.70;;;25.60;99.90;;;;;;4906813;29;20123;-84
2022/08/18 13:57:59;;;;;;;2.30;1.60;;;25.40;99.90;;;;;;4939986;29;20075;-82
2022/08/18 14:00:25;;;;;;;4.65;1.60;;;25.20;99.90;;;;;;4922200;29;20079;-86
2022/08/18 14:02:54;;;;;;;2.85;1.75;;;25.00;99.90;;;;;;4922619;29;20044;-85
2022/08/18 14:05:20;;;;;;;3.63;1.98;;;24.80;99.90;;;;;;4938496;29;20508;-86
2022/08/18 14:07:46;;;;;;;3.30;1.70;;;24.70;99.90;;;;;;4921793;29;20055;-84
2022/08/18 14:10:12;;;;;;;2.67;1.55;;;24.60;99.90;;;;;;4922102;29;20123;-85
2022/08/18 14:12:39;;;;;;;3.28;1.70;;;24.70;99.90;;;;;;4906241;29;20043;-86
2022/08/18 14:15:08;;;;;;;3.08;1.52;;;24.70;99.90;;;;;;4921953;29;20130;-86
2022/08/18 14:17:35;;;;;;;3.03;1.42;;;24.60;99.90;;;;;;4922180;29;20097;-84
2022/08/18 14:28:17;;;;;;;3.47;1.73;;;25.40;99.90;;;;;;4939742;29;20044;-86
2022/08/18 14:30:44;;;;;;;3.30;1.80;;;25.30;99.90;;;;;;4922270;29;20091;-89
2022/08/18 14:33:10;;;;;;;3.83;1.95;;;25.10;99.90;;;;;;4922606;29;20047;-88
2022/08/18 14:35:36;;;;;;;4.15;1.80;;;24.90;99.90;;;;;;4922632;29;20105;-85
2022/08/18 14:38:06;;;;;;;4.05;2.10;;;24.70;99.90;;;;;;4922304;29;20050;-85
2022/08/18 14:40:33;;;;;;;2.75;1.85;;;24.60;99.90;;;;;;4922270;29;20538;-86
2022/08/18 14:42:59;;;;;;;3.60;1.70;;;24.50;99.90;;;;;;4922600;29;20479;-85
2022/08/18 14:45:26;;;;;;;3.58;1.75;;;24.40;99.90;;;;;;4921935;29;20495;-90
2022/08/18 14:47:52;;;;;;;4.97;1.70;;;24.70;99.90;;;;;;4906315;29;20044;-86
2022/08/18 14:50:19;;;;;;;3.42;1.58;;;24.80;99.90;;;;;;4939380;29;20481;-86
2022/08/18 14:52:47;;;;;;;4.80;1.77;;;25.10;99.90;;;;;;4921952;29;20087;-87
2022/08/18 14:55:14;;;;;;;3.53;1.80;;;25.30;99.90;;;;;;4939103;29;20035;-87
2022/08/18 14:57:40;;;;;;;2.88;1.75;;;25.40;99.90;;;;;;4922290;29;20099;-88
2022/08/18 15:00:10;;;;;;;3.47;2.30;;;25.30;99.90;;;;;;4906244;29;20079;-84
2022/08/18 15:02:37;;;;;;;4.25;1.95;;;25.20;99.90;;;;;;4888681;29;20056;-81
2022/08/18 15:05:04;;;;;;;3.90;1.90;;;25.00;99.90;;;;;;4919371;29;20446;-89
2022/08/18 15:07:31;;;;;;;5.20;2.30;;;24.90;99.90;;;;;;4902702;29;20127;-86
2022/08/18 15:09:57;;;;;;;3.83;1.83;;;25.00;99.90;;;;;;4902852;29;20040;-84
2022/08/18 15:12:23;;;;;;;3.72;1.83;;;25.20;99.90;;;;;;4887137;29;20048;-87
2022/08/18 15:14:49;;;;;;;4.13;2.13;;;25.40;99.90;;;;;;4903075;29;20115;-86
2022/08/18 15:17:15;;;;;;;4.72;2.05;;;25.50;99.90;;;;;;4903114;29;20107;-84
2022/08/18 15:19:43;;;;;;;4.10;1.90;;;25.50;99.90;;;;;;4902371;29;20095;-82
2022/08/18 15:27:42;;;;;;;2.60;1.60;;;25.90;99.90;;;;;;4919914;29;20296;-85
2022/08/18 15:30:14;;;;;;;4.20;2.00;;;25.90;99.90;;;;;;4919064;29;20543;-84
2022/08/18 15:32:41;;;;;;;3.33;1.70;;;26.10;99.90;;;;;;4902096;29;20056;-84
2022/08/18 15:35:21;;;;;;;5.15;1.70;;;26.20;99.90;;;;;;4902202;29;20050;-87
2022/08/18 15:37:47;;;;;;;4.60;2.08;;;26.20;99.90;;;;;;4901896;29;20055;-87
2022/08/18 15:40:19;;;;;;;2.75;1.80;;;26.20;99.90;;;;;;4902477;29;20043;-86
2022/08/18 15:42:51;;;;;;;5.05;1.80;;;26.20;99.90;;;;;;4902301;29;20051;-86
2022/08/18 15:45:19;;;;;;;3.35;1.65;;;26.20;99.90;;;;;;4901960;29;20044;-86
2022/08/18 15:47:49;;;;;;;5.03;2.40;;;26.30;99.90;;;;;;4901391;29;20048;-87
2022/08/18 15:50:15;;;;;;;2.92;1.67;;;26.20;99.90;;;;;;4885904;29;20067;-87
2022/08/18 15:52:49;;;;;;;2.65;1.70;;;26.20;99.90;;;;;;4886316;29;20089;-87
2022/08/18 15:55:21;;;;;;;4.55;2.00;;;25.90;99.90;;;;;;4901326;29;20128;-86
2022/08/18 15:57:49;;;;;;;3.05;1.52;;;25.60;99.90;;;;;;4886945;29;20372;-87
2022/08/18 16:00:35;;;;;;;2.67;1.80;;;25.40;99.90;;;;;;4901457;29;20044;-87
2022/08/18 16:08:02;;;;;;;3.05;1.73;;;25.60;99.90;;;;;;4859652;29;20474;-85
2022/08/18 16:10:37;;;;;;;4.35;1.67;;;25.70;99.90;;;;;;4877891;29;20057;-86
2022/08/18 16:13:06;;;;;;;5.20;1.80;;;25.80;99.90;;;;;;4864285;29;20146;-80
2022/08/18 16:15:41;;;;;;;4.78;1.90;;;25.90;99.90;;;;;;4878878;29;20049;-82
2022/08/18 16:18:08;;;;;;;4.65;2.10;;;25.90;99.90;;;;;;4866396;29;20128;-84
2022/08/18 16:20:35;;;;;;;3.80;2.00;;;25.90;99.90;;;;;;4878252;29;20120;-86
2022/08/18 16:23:01;;;;;;;5.00;2.45;;;25.80;99.90;;;;;;4878389;29;20088;-86
2022/08/18 16:25:27;;;;;;;3.10;2.00;;;25.90;99.90;;;;;;4862957;29;20080;-84
2022/08/18 16:27:53;;;;;;;3.47;1.70;;;25.80;99.90;;;;;;4862501;29;20128;-85
2022/08/18 16:30:25;;;;;;;3.78;1.73;;;25.80;99.90;;;;;;4878176;29;20446;-85
2022/08/18 16:32:52;;;;;;;4.63;1.95;;;25.70;99.90;;;;;;4863006;29;20445;-85
2022/08/18 16:35:18;;;;;;;2.28;1.77;;;25.70;99.90;;;;;;4886349;29;20078;-88
2022/08/18 16:37:45;;;;;;;3.65;1.55;;;25.70;99.90;;;;;;4885479;29;20056;-85
2022/08/18 16:40:12;;;;;;;3.75;1.70;;;25.60;99.90;;;;;;4917578;29;20043;-85
2022/08/18 16:42:38;;;;;;;2.65;1.70;;;25.50;99.90;;;;;;4900682;29;20103;-85
2022/08/18 16:45:05;;;;;;;3.28;1.70;;;25.50;99.90;;;;;;4900476;29;20122;-85